Time;durP1;ratioP1;P1;durP2;ratioP2;P2;SDS_P1;SDS_P2;PMS_P1;PMS_P2;Temp;Humidity;BMP_temperature;BMP_pressure;BME280_temperature;BME280_humidity;BME280_pressure;Samples;Min_cycle;Max_cycle;Signal;HPM_P1;HPM_P2
2022/10/03 00:01:42;;;;;;;2.45;2.25;;;11.60;99.90;;;;;;5052402;28;20201;-69
2022/10/03 00:04:21;;;;;;;3.25;1.98;;;11.60;99.90;;;;;;5052607;28;20351;-69
2022/10/03 00:07:01;;;;;;;3.60;2.33;;;11.60;99.90;;;;;;5052889;28;20208;-69
2022/10/03 00:09:42;;;;;;;2.42;2.22;;;11.60;99.90;;;;;;5052437;28;20205;-69
2022/10/03 00:12:17;;;;;;;3.05;2.20;;;11.60;99.90;;;;;;5052063;28;20206;-69
2022/10/03 00:14:53;;;;;;;2.17;2.05;;;11.50;99.90;;;;;;5051644;28;20682;-69
2022/10/03 00:17:29;;;;;;;2.30;2.10;;;11.50;99.90;;;;;;5052572;28;20208;-69
2022/10/03 00:20:04;;;;;;;2.67;2.30;;;11.50;99.90;;;;;;5052478;28;20198;-69
2022/10/03 00:22:41;;;;;;;4.38;2.35;;;11.50;99.90;;;;;;5051710;28;20229;-69
2022/10/03 00:25:30;;;;;;;3.08;2.30;;;11.40;99.90;;;;;;5052311;28;20213;-69
2022/10/03 00:28:12;;;;;;;2.35;2.13;;;11.40;99.90;;;;;;5052376;28;20214;-68
2022/10/03 00:31:08;;;;;;;2.63;2.42;;;11.30;99.90;;;;;;5051942;28;20201;-69
2022/10/03 00:33:45;;;;;;;2.70;2.50;;;11.30;99.90;;;;;;5050027;28;20735;-68
2022/10/03 00:36:19;;;;;;;3.95;2.58;;;11.30;99.90;;;;;;5051988;28;20197;-69
2022/10/03 00:39:25;;;;;;;3.25;2.45;;;11.30;99.90;;;;;;5052042;28;20205;-69
2022/10/03 00:42:38;;;;;;;2.90;2.70;;;11.20;99.90;;;;;;5051244;28;20672;-68
2022/10/03 00:45:44;;;;;;;3.60;2.70;;;11.20;99.90;;;;;;5051978;28;20217;-69
2022/10/03 00:48:31;;;;;;;4.03;2.65;;;11.20;99.90;;;;;;5051905;28;20201;-69
2022/10/03 00:51:24;;;;;;;2.80;2.50;;;11.20;99.90;;;;;;5051909;28;20209;-69
2022/10/03 00:54:03;;;;;;;3.30;3.00;;;11.20;99.90;;;;;;5051594;28;20228;-69
2022/10/03 00:56:48;;;;;;;3.40;3.10;;;11.20;99.90;;;;;;5051681;28;20577;-69
2022/10/03 00:59:27;;;;;;;3.15;2.85;;;11.20;99.90;;;;;;5051726;28;20236;-69
2022/10/03 01:01:56;;;;;;;3.22;2.90;;;11.20;99.90;;;;;;5051041;28;20296;-69
2022/10/03 01:04:46;;;;;;;3.28;2.97;;;11.20;99.90;;;;;;5051403;28;20565;-69
2022/10/03 01:07:29;;;;;;;3.45;3.15;;;11.20;99.90;;;;;;5051713;28;20236;-69
2022/10/03 01:10:18;;;;;;;2.88;2.67;;;11.20;99.90;;;;;;5051473;28;20206;-69
2022/10/03 01:12:57;;;;;;;4.40;3.35;;;11.30;99.90;;;;;;5050693;28;20300;-69
2022/10/03 01:15:37;;;;;;;3.35;3.00;;;11.20;99.90;;;;;;5051322;28;20228;-69
2022/10/03 01:18:21;;;;;;;3.70;3.40;;;11.30;99.90;;;;;;5051492;28;20559;-69
2022/10/03 01:20:58;;;;;;;3.70;3.40;;;11.30;99.90;;;;;;5050999;28;20205;-69
2022/10/03 01:24:08;;;;;;;3.60;3.28;;;11.30;99.90;;;;;;5050745;28;20225;-69
2022/10/03 01:27:03;;;;;;;4.18;3.00;;;11.30;99.90;;;;;;5050250;28;20906;-69
2022/10/03 01:32:36;;;;;;;3.33;3.03;;;11.30;99.90;;;;;;5050160;28;20197;-69
2022/10/03 01:35:14;;;;;;;4.75;3.40;;;11.30;99.90;;;;;;5050765;28;20596;-69
2022/10/03 01:37:50;;;;;;;3.50;3.08;;;11.30;99.90;;;;;;5050565;28;20240;-69
2022/10/03 01:40:25;;;;;;;3.97;3.15;;;11.30;99.90;;;;;;5050767;28;20205;-69
2022/10/03 01:43:02;;;;;;;4.30;3.35;;;11.20;99.90;;;;;;5050117;28;20197;-69
2022/10/03 01:45:40;;;;;;;3.20;2.95;;;11.20;99.90;;;;;;5050613;28;20221;-69
2022/10/03 01:48:15;;;;;;;3.25;2.90;;;11.20;99.90;;;;;;5050470;28;20212;-69
2022/10/03 01:50:55;;;;;;;3.22;2.92;;;11.10;99.90;;;;;;5050431;28;20213;-69
2022/10/03 01:53:31;;;;;;;2.78;2.55;;;11.10;99.90;;;;;;5049860;28;20225;-69
2022/10/03 01:56:03;;;;;;;3.15;2.45;;;11.00;99.90;;;;;;5050298;28;20680;-68
2022/10/03 01:58:41;;;;;;;6.03;3.67;;;10.90;99.90;;;;;;5050418;28;20577;-69
2022/10/03 02:01:13;;;;;;;3.53;3.22;;;10.90;99.90;;;;;;5050117;28;20212;-69
2022/10/03 02:03:49;;;;;;;3.58;3.20;;;10.90;99.90;;;;;;5050243;28;20218;-69
2022/10/03 02:06:24;;;;;;;2.83;2.63;;;10.80;99.90;;;;;;5050419;28;20633;-69
2022/10/03 02:08:58;;;;;;;3.42;2.80;;;10.80;99.90;;;;;;5050373;28;20579;-69
2022/10/03 02:11:33;;;;;;;3.67;3.38;;;10.80;99.90;;;;;;5049630;28;20200;-69
2022/10/03 02:14:16;;;;;;;3.58;3.28;;;10.70;99.90;;;;;;5049992;28;20692;-69
2022/10/03 02:16:53;;;;;;;4.57;3.08;;;10.70;99.90;;;;;;5050042;28;20209;-69
2022/10/03 02:19:25;;;;;;;2.95;2.65;;;10.80;99.90;;;;;;5050218;28;20209;-69
2022/10/03 02:21:54;;;;;;;4.25;3.38;;;10.80;99.90;;;;;;5049299;28;20525;-69
2022/10/03 02:24:32;;;;;;;3.85;3.30;;;10.80;99.90;;;;;;5050380;28;20554;-69
2022/10/03 02:27:28;;;;;;;3.35;3.05;;;10.80;99.90;;;;;;5050257;28;20197;-69
2022/10/03 02:30:11;;;;;;;4.10;3.70;;;10.80;99.90;;;;;;5050200;28;20202;-68
2022/10/03 02:33:16;;;;;;;4.10;3.70;;;10.80;99.90;;;;;;5049329;28;20210;-69
2022/10/03 02:35:55;;;;;;;3.70;3.40;;;10.90;99.90;;;;;;5019717;28;20225;-68
2022/10/03 02:38:40;;;;;;;5.20;3.40;;;10.90;99.90;;;;;;5051495;28;20207;-69
2022/10/03 02:41:24;;;;;;;4.32;3.95;;;10.90;99.90;;;;;;5054340;28;20555;-69
2022/10/03 02:44:27;;;;;;;5.38;3.85;;;10.90;99.90;;;;;;5054194;28;20234;-69
2022/10/03 02:47:40;;;;;;;5.25;4.03;;;10.90;99.90;;;;;;5012260;28;20250;-68
2022/10/03 02:50:52;;;;;;;4.57;3.90;;;10.80;99.90;;;;;;5054239;28;20573;-69
2022/10/03 02:53:56;;;;;;;5.10;4.55;;;10.90;99.90;;;;;;5053497;28;20204;-69
2022/10/03 02:56:51;;;;;;;4.25;3.85;;;10.80;99.90;;;;;;5054007;28;20211;-69
2022/10/03 02:59:56;;;;;;;5.75;4.95;;;10.70;99.90;;;;;;5053855;28;20921;-69
2022/10/03 03:02:55;;;;;;;8.70;4.63;;;10.70;99.90;;;;;;5053245;28;20205;-68
2022/10/03 03:05:40;;;;;;;5.30;3.95;;;10.60;99.90;;;;;;5053944;28;20221;-68
2022/10/03 03:08:45;;;;;;;5.38;4.88;;;10.50;99.90;;;;;;5053598;28;20206;-69
2022/10/03 03:11:42;;;;;;;5.65;4.15;;;10.50;99.90;;;;;;5053338;28;20216;-68
2022/10/03 03:14:43;;;;;;;3.95;3.55;;;10.50;99.90;;;;;;5053394;28;20299;-69
2022/10/03 03:17:23;;;;;;;3.67;3.38;;;10.50;99.90;;;;;;5053774;28;20212;-69
2022/10/03 03:20:06;;;;;;;4.00;3.63;;;10.40;99.90;;;;;;5053578;28;20205;-69
2022/10/03 03:22:48;;;;;;;5.43;3.78;;;10.30;99.90;;;;;;5052906;28;20220;-69
2022/10/03 03:25:49;;;;;;;4.18;3.35;;;10.30;99.90;;;;;;5053398;28;20595;-69
2022/10/03 03:28:28;;;;;;;3.55;3.25;;;10.30;99.90;;;;;;5053446;28;20205;-69
2022/10/03 03:31:09;;;;;;;4.03;3.63;;;10.20;99.90;;;;;;5053553;28;20202;-69
2022/10/03 03:33:51;;;;;;;3.83;3.45;;;10.10;99.90;;;;;;5052971;28;20225;-69
2022/10/03 03:36:26;;;;;;;3.70;3.35;;;10.10;99.90;;;;;;5053230;28;20255;-69
2022/10/03 03:39:02;;;;;;;4.00;3.30;;;10.00;99.90;;;;;;5053446;28;20311;-69
2022/10/03 03:41:49;;;;;;;5.18;3.83;;;10.00;99.90;;;;;;5052458;28;20581;-69
2022/10/03 03:44:45;;;;;;;4.20;3.10;;;10.00;99.90;;;;;;5053127;28;20252;-69
2022/10/03 03:47:26;;;;;;;3.28;2.97;;;9.90;99.90;;;;;;5053123;28;20216;-69
2022/10/03 03:50:13;;;;;;;5.18;4.10;;;9.80;99.90;;;;;;5052140;28;20727;-69
2022/10/03 03:52:53;;;;;;;4.53;3.90;;;9.80;99.90;;;;;;5052091;28;20227;-68
2022/10/03 03:55:36;;;;;;;6.15;4.05;;;9.70;99.90;;;;;;5052909;28;20226;-69
2022/10/03 03:58:17;;;;;;;4.70;3.67;;;9.70;99.90;;;;;;5052758;28;20200;-69
2022/10/03 04:01:03;;;;;;;4.55;3.67;;;9.60;99.90;;;;;;5052813;28;20209;-69
2022/10/03 04:03:42;;;;;;;3.78;3.25;;;9.60;99.90;;;;;;5052103;28;20598;-68
2022/10/03 04:06:22;;;;;;;3.83;3.47;;;9.60;99.90;;;;;;5052812;28;20299;-69
2022/10/03 04:09:08;;;;;;;5.22;3.97;;;9.60;99.90;;;;;;5052554;28;20223;-69
2022/10/03 04:11:48;;;;;;;8.38;4.40;;;9.60;99.90;;;;;;5052027;28;20200;-68
2022/10/03 04:14:53;;;;;;;6.72;4.43;;;9.60;99.90;;;;;;5052368;28;20236;-67
2022/10/03 04:20:57;;;;;;;6.85;4.70;;;9.60;99.90;;;;;;5052334;28;20212;-67
2022/10/03 04:23:48;;;;;;;4.93;4.43;;;9.60;99.90;;;;;;5051791;28;20225;-68
2022/10/03 04:26:27;;;;;;;4.25;3.85;;;9.60;99.90;;;;;;5052341;28;20205;-67
2022/10/03 04:29:25;;;;;;;4.15;3.75;;;9.60;99.90;;;;;;5052365;28;20212;-67
2022/10/03 04:32:00;;;;;;;5.10;4.03;;;9.60;99.90;;;;;;5051531;28;20237;-68
2022/10/03 04:34:44;;;;;;;8.45;3.80;;;9.60;99.90;;;;;;5052030;28;20223;-67
2022/10/03 04:37:32;;;;;;;4.10;3.70;;;9.60;99.90;;;;;;5051689;28;20205;-68
2022/10/03 04:40:16;;;;;;;4.97;3.95;;;9.60;99.90;;;;;;5051857;28;20205;-68
2022/10/03 04:42:52;;;;;;;4.50;4.00;;;9.60;99.90;;;;;;5051260;28;20212;-67
2022/10/03 04:45:31;;;;;;;3.90;3.47;;;9.60;99.90;;;;;;5052036;28;20231;-68
2022/10/03 04:48:09;;;;;;;4.30;3.60;;;9.60;99.90;;;;;;5052020;28;20212;-68
2022/10/03 04:50:42;;;;;;;4.93;3.67;;;9.60;99.90;;;;;;5051756;28;20208;-68
2022/10/03 04:53:21;;;;;;;4.20;3.55;;;9.60;99.90;;;;;;5051062;28;20357;-69
2022/10/03 04:55:53;;;;;;;4.07;3.55;;;9.50;99.90;;;;;;5051788;28;20228;-69
2022/10/03 04:58:30;;;;;;;4.40;3.40;;;9.50;99.90;;;;;;5051727;28;20205;-69
2022/10/03 05:01:06;;;;;;;3.75;3.35;;;9.50;99.90;;;;;;5051310;28;20265;-69
2022/10/03 05:03:47;;;;;;;6.35;3.35;;;9.50;99.90;;;;;;5050771;28;20225;-69
2022/10/03 05:06:42;;;;;;;5.05;3.72;;;9.50;99.90;;;;;;5051284;28;20194;-69
2022/10/03 05:09:21;;;;;;;4.03;3.03;;;9.50;99.90;;;;;;5051224;28;20720;-69
2022/10/03 05:11:59;;;;;;;4.88;3.50;;;9.40;99.90;;;;;;5050490;28;20208;-69
2022/10/03 05:14:44;;;;;;;4.20;3.33;;;9.40;99.90;;;;;;5079229;22;20225;-66
2022/10/03 05:17:19;;;;;;;5.50;3.60;;;9.40;99.90;;;;;;5051408;28;20244;-66
2022/10/03 05:20:01;;;;;;;5.50;3.92;;;9.40;99.90;;;;;;5051175;28;20556;-65
2022/10/03 05:22:39;;;;;;;4.60;3.97;;;9.40;99.90;;;;;;5050702;28;20227;-66
2022/10/03 05:25:29;;;;;;;4.22;3.58;;;9.40;99.90;;;;;;5051299;28;20231;-66
2022/10/03 05:28:06;;;;;;;5.38;4.05;;;9.50;99.90;;;;;;5050976;28;20664;-66
2022/10/03 05:30:41;;;;;;;4.93;3.65;;;9.40;99.90;;;;;;5051200;28;20204;-65
2022/10/03 05:33:16;;;;;;;4.18;3.78;;;9.40;99.90;;;;;;5050287;28;20201;-65
2022/10/03 05:35:55;;;;;;;5.55;4.10;;;9.50;99.90;;;;;;5050837;28;20231;-66
2022/10/03 05:38:52;;;;;;;4.80;3.80;;;9.50;99.90;;;;;;5050924;28;20212;-65
2022/10/03 05:41:25;;;;;;;4.03;3.40;;;9.50;99.90;;;;;;5050501;28;20215;-66
2022/10/03 05:44:02;;;;;;;5.00;4.15;;;9.60;99.90;;;;;;5050570;28;20227;-66
2022/10/03 05:46:50;;;;;;;5.85;3.80;;;9.60;99.90;;;;;;5051184;28;20204;-66
2022/10/03 05:49:31;;;;;;;5.07;3.63;;;9.70;99.90;;;;;;5050596;28;20219;-66
2022/10/03 05:52:21;;;;;;;4.57;4.05;;;9.70;99.90;;;;;;5050044;28;20212;-66
2022/10/03 05:55:02;;;;;;;7.30;6.65;;;9.80;99.90;;;;;;5050314;28;20257;-66
2022/10/03 05:57:58;;;;;;;6.75;5.35;;;9.80;99.90;;;;;;5050870;28;20201;-66
2022/10/03 06:00:36;;;;;;;7.45;4.88;;;9.90;99.90;;;;;;5050569;28;20343;-66
2022/10/03 06:03:37;;;;;;;9.52;6.22;;;10.00;99.90;;;;;;5049269;28;20689;-66
2022/10/03 06:06:13;;;;;;;9.75;7.07;;;10.10;99.90;;;;;;5043762;28;20196;-66
2022/10/03 06:09:20;;;;;;;13.50;8.18;;;10.10;99.90;;;;;;5050608;28;20208;-66
2022/10/03 06:12:10;;;;;;;7.72;5.20;;;10.20;99.90;;;;;;5049737;28;20201;-66
2022/10/03 06:14:53;;;;;;;12.82;7.40;;;10.50;99.90;;;;;;5054582;28;20232;-66
2022/10/03 06:17:38;;;;;;;9.15;6.70;;;10.50;99.90;;;;;;5070728;28;20210;-66
2022/10/03 06:20:26;;;;;;;14.38;7.75;;;10.60;99.90;;;;;;5070227;28;20208;-66
2022/10/03 06:23:37;;;;;;;11.05;7.70;;;10.80;99.90;;;;;;5069697;28;20208;-66
2022/10/03 06:26:24;;;;;;;10.57;7.57;;;10.70;99.90;;;;;;5069896;28;20671;-66
2022/10/03 06:29:34;;;;;;;11.48;8.38;;;10.80;99.90;;;;;;5069959;28;20228;-67
2022/10/03 06:32:47;;;;;;;10.52;7.95;;;10.70;99.90;;;;;;5069539;28;20239;-66
2022/10/03 06:35:56;;;;;;;10.65;7.68;;;10.70;99.90;;;;;;5050540;28;20228;-66
2022/10/03 06:39:11;;;;;;;14.98;8.45;;;10.70;99.90;;;;;;5070161;28;20208;-66
2022/10/03 06:42:19;;;;;;;13.90;7.65;;;10.70;99.90;;;;;;5057652;28;20204;-66
2022/10/03 06:45:13;;;;;;;11.35;7.72;;;10.70;99.90;;;;;;5070193;28;20224;-66
2022/10/03 06:47:52;;;;;;;9.60;7.45;;;10.80;99.90;;;;;;5070166;28;20664;-66
2022/10/03 06:50:35;;;;;;;14.07;9.30;;;10.80;99.90;;;;;;5070364;28;20227;-66
2022/10/03 06:53:39;;;;;;;10.43;8.07;;;10.90;99.90;;;;;;5069653;28;20227;-65
2022/10/03 06:56:53;;;;;;;8.80;6.38;;;11.00;99.90;;;;;;5070169;28;20227;-66
2022/10/03 06:59:44;;;;;;;16.08;8.35;;;11.20;99.90;;;;;;5035293;28;20208;-66
2022/10/03 07:02:42;;;;;;;14.68;8.85;;;11.20;99.90;;;;;;5069726;28;20259;-66
2022/10/03 07:05:41;;;;;;;12.70;8.30;;;11.30;99.90;;;;;;5070045;28;20216;-66
2022/10/03 07:08:40;;;;;;;10.40;7.15;;;11.30;99.90;;;;;;5070213;28;20671;-66
2022/10/03 07:11:33;;;;;;;12.85;8.80;;;11.30;99.90;;;;;;5069904;28;20201;-66
2022/10/03 07:14:39;;;;;;;11.70;7.40;;;11.20;99.90;;;;;;5069950;28;20248;-66
2022/10/03 07:17:25;;;;;;;10.02;6.95;;;11.20;99.90;;;;;;5069678;28;20221;-66
2022/10/03 07:20:29;;;;;;;11.90;7.25;;;11.20;99.90;;;;;;5069873;28;20220;-66
2022/10/03 07:23:37;;;;;;;9.48;7.22;;;11.20;99.90;;;;;;5067142;28;20201;-66
2022/10/03 07:26:41;;;;;;;124.75;55.08;;;11.20;99.90;;;;;;5072264;28;20243;-66
2022/10/03 07:29:42;;;;;;;18.67;10.43;;;11.20;99.90;;;;;;5073087;28;20581;-66
2022/10/03 07:32:58;;;;;;;10.25;7.28;;;11.20;99.90;;;;;;5072993;28;20572;-66
2022/10/03 07:38:59;;;;;;;12.77;9.00;;;11.20;99.90;;;;;;5073298;28;20190;-66
2022/10/03 07:42:08;;;;;;;13.43;7.05;;;11.10;99.90;;;;;;5072744;28;20205;-66
2022/10/03 07:45:17;;;;;;;14.55;7.63;;;11.10;99.90;;;;;;4971655;28;20225;-66
2022/10/03 07:48:12;;;;;;;7.97;6.18;;;11.10;99.90;;;;;;5013567;28;20197;-66
2022/10/03 07:51:07;;;;;;;11.07;8.20;;;11.10;99.90;;;;;;5019550;28;20209;-66
2022/10/03 07:54:11;;;;;;;12.13;8.30;;;11.10;99.90;;;;;;5052483;28;20611;-66
2022/10/03 07:57:21;;;;;;;9.52;6.32;;;11.20;99.90;;;;;;5052624;28;20311;-66
2022/10/03 08:00:21;;;;;;;8.15;6.60;;;11.10;99.90;;;;;;4971674;28;20926;-66
2022/10/03 08:03:33;;;;;;;14.10;7.55;;;11.10;99.90;;;;;;4971021;28;20252;-66
2022/10/03 08:06:19;;;;;;;11.32;7.20;;;11.10;99.90;;;;;;5051611;28;20200;-66
2022/10/03 08:09:13;;;;;;;11.90;6.85;;;11.10;99.90;;;;;;5052728;28;20701;-66
2022/10/03 08:12:18;;;;;;;11.05;7.88;;;11.20;99.90;;;;;;5051650;28;20812;-65
2022/10/03 08:14:55;;;;;;;12.30;7.70;;;11.20;99.90;;;;;;5052341;28;20237;-66
2022/10/03 08:17:55;;;;;;;10.57;6.38;;;11.20;99.90;;;;;;5052620;28;20275;-65
2022/10/03 08:20:48;;;;;;;13.70;7.00;;;11.30;99.90;;;;;;5052439;28;20205;-65
2022/10/03 08:23:53;;;;;;;11.20;7.10;;;11.30;99.90;;;;;;5051812;28;20230;-65
2022/10/03 08:26:34;;;;;;;10.27;6.45;;;11.30;99.90;;;;;;5050887;28;20197;-65
2022/10/03 08:29:27;;;;;;;8.52;6.70;;;11.30;99.90;;;;;;5052102;28;20201;-65
2022/10/03 08:32:34;;;;;;;12.65;7.40;;;11.40;99.90;;;;;;5051944;28;20727;-65
2022/10/03 08:35:36;;;;;;;9.88;6.40;;;11.40;99.90;;;;;;5069346;28;20710;-65
2022/10/03 08:38:26;;;;;;;7.22;6.15;;;11.40;99.90;;;;;;5163469;22;20241;-68
2022/10/03 08:41:34;;;;;;;9.75;6.88;;;11.50;99.90;;;;;;5050236;28;20595;-68
2022/10/03 08:44:41;;;;;;;7.47;5.80;;;11.50;99.90;;;;;;5051514;28;20225;-68
2022/10/03 08:47:30;;;;;;;12.40;6.05;;;11.50;99.90;;;;;;5051091;28;20206;-68
2022/10/03 08:50:17;;;;;;;8.10;5.93;;;11.50;99.90;;;;;;5020170;28;20292;-68
2022/10/03 08:53:08;;;;;;;105.40;52.22;;;11.60;99.90;;;;;;5050245;28;20224;-68
2022/10/03 08:55:45;;;;;;;14.15;10.57;;;11.70;99.90;;;;;;5031815;28;20233;-68
2022/10/03 08:58:56;;;;;;;10.23;7.97;;;11.90;99.90;;;;;;5031648;28;20206;-69
2022/10/03 09:01:34;;;;;;;10.05;6.38;;;12.10;99.90;;;;;;4970105;28;20204;-68
2022/10/03 09:04:54;;;;;;;10.98;6.13;;;12.10;99.90;;;;;;5020755;28;20595;-67
2022/10/03 09:07:34;;;;;;;7.90;5.75;;;12.20;99.90;;;;;;4970127;28;20205;-68
2022/10/03 09:10:35;;;;;;;24.40;16.75;;;12.40;99.90;;;;;;5030847;28;20207;-68
2022/10/03 09:13:47;;;;;;;67.32;43.42;;;12.70;99.90;;;;;;5030638;28;20203;-68
2022/10/03 09:16:47;;;;;;;18.75;13.88;;;13.10;99.90;;;;;;5030991;28;20701;-68
2022/10/03 09:19:48;;;;;;;14.65;10.77;;;13.30;99.90;;;;;;5031138;28;20210;-68
2022/10/03 09:22:37;;;;;;;40.03;24.08;;;13.30;99.90;;;;;;5030177;28;20201;-68
2022/10/03 09:25:35;;;;;;;17.30;12.20;;;13.20;99.90;;;;;;5030988;28;20223;-68
2022/10/03 09:28:36;;;;;;;6.50;5.90;;;13.00;99.90;;;;;;5030531;28;20457;-68
2022/10/03 09:31:20;;;;;;;5.65;5.07;;;12.90;99.90;;;;;;5030463;28;20220;-68
2022/10/03 09:34:21;;;;;;;5.55;4.88;;;12.80;99.90;;;;;;5030453;28;20226;-68
2022/10/03 09:37:23;;;;;;;5.65;5.07;;;12.60;99.90;;;;;;5030501;28;20618;-68
2022/10/03 09:40:19;;;;;;;5.75;4.78;;;12.50;99.90;;;;;;5030329;28;20206;-68
2022/10/03 09:43:33;;;;;;;6.40;5.15;;;12.50;99.90;;;;;;5029763;28;20210;-68
2022/10/03 09:46:29;;;;;;;5.55;4.90;;;12.40;99.90;;;;;;5030671;28;20206;-68
2022/10/03 09:49:37;;;;;;;7.30;5.15;;;12.40;99.90;;;;;;5028959;28;20214;-68
2022/10/03 09:52:26;;;;;;;6.75;5.15;;;12.40;99.90;;;;;;5026449;28;20241;-68
2022/10/03 09:55:39;;;;;;;9.45;5.43;;;12.50;99.90;;;;;;5020884;28;20226;-68
2022/10/03 09:58:45;;;;;;;6.57;5.32;;;12.60;99.90;;;;;;4994446;28;20223;-68
2022/10/03 10:01:21;;;;;;;6.47;4.85;;;12.90;99.90;;;;;;4999901;28;20210;-68
2022/10/03 10:04:34;;;;;;;5.85;4.35;;;13.10;99.90;;;;;;5049980;28;20712;-68
2022/10/03 10:07:30;;;;;;;8.48;6.05;;;13.20;99.90;;;;;;5049969;28;20675;-68
2022/10/03 10:10:21;;;;;;;8.32;5.43;;;13.20;99.90;;;;;;5050016;28;20217;-68
2022/10/03 10:13:27;;;;;;;8.20;4.50;;;13.10;99.90;;;;;;5049158;28;20212;-68
2022/10/03 10:16:25;;;;;;;4.45;4.00;;;13.00;99.90;;;;;;5049839;28;20248;-68
2022/10/03 10:19:26;;;;;;;5.43;4.53;;;13.00;99.90;;;;;;5049480;28;20296;-68
2022/10/03 10:22:23;;;;;;;6.25;4.72;;;13.00;99.90;;;;;;5049043;28;20609;-68
2022/10/03 10:25:21;;;;;;;4.85;4.07;;;13.00;99.90;;;;;;5049647;28;20221;-68
2022/10/03 10:28:17;;;;;;;5.90;4.68;;;13.10;99.90;;;;;;5047532;28;20197;-67
2022/10/03 10:31:30;;;;;;;5.95;4.75;;;13.20;99.90;;;;;;5048267;28;20201;-68
2022/10/03 10:34:30;;;;;;;7.28;4.53;;;13.20;99.90;;;;;;5049634;28;20856;-68
2022/10/03 10:37:34;;;;;;;5.10;4.60;;;13.20;99.90;;;;;;5049449;28;20222;-68
2022/10/03 10:40:39;;;;;;;28.55;17.80;;;13.10;99.90;;;;;;5049625;28;20216;-68
2022/10/03 10:43:40;;;;;;;6.57;5.90;;;13.10;99.90;;;;;;5034550;28;20676;-68
2022/10/03 10:47:07;;;;;;;9.45;5.47;;;13.10;99.90;;;;;;5050006;28;20664;-67
2022/10/03 10:50:12;;;;;;;8.48;5.00;;;13.10;99.90;;;;;;5049653;28;20206;-67
2022/10/03 10:53:11;;;;;;;5.63;4.57;;;13.70;99.90;;;;;;5049296;28;20216;-67
2022/10/03 10:56:14;;;;;;;8.30;4.87;;;14.10;99.90;;;;;;5049649;28;20463;-67
2022/10/03 10:59:22;;;;;;;11.43;4.70;;;14.50;99.90;;;;;;5049705;28;20966;-67
2022/10/03 11:02:32;;;;;;;4.80;4.30;;;14.60;99.90;;;;;;5052912;28;20874;-67
2022/10/03 11:05:39;;;;;;;5.27;4.73;;;14.50;99.90;;;;;;5053229;28;20575;-67
2022/10/03 11:08:41;;;;;;;6.90;5.80;;;14.20;99.90;;;;;;5054036;28;20513;-67
2022/10/03 11:11:38;;;;;;;8.77;4.50;;;14.00;99.90;;;;;;5053258;28;20950;-67
2022/10/03 11:14:49;;;;;;;9.43;4.90;;;13.90;99.90;;;;;;5037805;22;20490;-96
2022/10/03 11:18:07;;;;;;;6.20;4.50;;;13.70;99.90;;;;;;5027058;28;20474;-94
2022/10/03 11:21:19;;;;;;;6.68;5.00;;;13.60;99.90;;;;;;4995363;28;20444;-93
2022/10/03 11:24:12;;;;;;;4.97;4.57;;;13.40;99.90;;;;;;5055548;28;20197;-94
2022/10/03 11:27:24;;;;;;;5.50;5.00;;;13.40;99.90;;;;;;5080472;28;20195;-93
2022/10/03 11:30:07;;;;;;;5.38;4.55;;;13.60;99.90;;;;;;5019458;28;20442;-95
2022/10/03 11:33:14;;;;;;;7.10;4.10;;;14.10;99.90;;;;;;5072453;28;20186;-93
2022/10/03 11:36:16;;;;;;;5.70;4.40;;;14.70;99.90;;;;;;5079794;28;20548;-95
2022/10/03 11:38:56;;;;;;;6.40;4.97;;;14.90;99.90;;;;;;5079890;28;20443;-94
2022/10/03 11:41:40;;;;;;;14.77;8.90;;;14.90;99.90;;;;;;5079542;28;20434;-92
2022/10/03 11:44:21;;;;;;;52.93;30.83;;;14.80;99.90;;;;;;5079970;28;20448;-94
2022/10/03 11:47:11;;;;;;;10.80;7.30;;;14.70;99.90;;;;;;5079570;28;20460;-95
2022/10/03 11:50:04;;;;;;;11.63;8.63;;;14.50;99.90;;;;;;5079891;28;20523;-93
2022/10/03 11:52:38;;;;;;;18.10;12.70;;;14.30;99.90;;;;;;5078432;22;20510;-68
2022/10/03 11:55:20;;;;;;;16.60;11.50;;;14.10;99.90;;;;;;5051990;28;20482;-68
2022/10/03 11:57:58;;;;;;;7.57;4.50;;;14.10;99.90;;;;;;5052767;28;20490;-68
2022/10/03 12:00:25;;;;;;;6.73;4.83;;;14.10;99.90;;;;;;5049135;28;20475;-68
2022/10/03 12:03:12;;;;;;;6.37;4.90;;;14.10;99.90;;;;;;5049192;28;20959;-68
2022/10/03 12:05:51;;;;;;;5.00;4.30;;;14.10;99.90;;;;;;5039915;28;20805;-68
2022/10/03 12:11:18;;;;;;;7.10;3.70;;;14.00;99.90;;;;;;5050690;28;20913;-68
2022/10/03 12:14:10;;;;;;;4.30;2.80;;;14.10;99.90;;;;;;5052190;28;20542;-68
2022/10/03 12:16:58;;;;;;;3.30;2.80;;;14.10;99.90;;;;;;5051745;28;20906;-68
2022/10/03 12:19:31;;;;;;;4.97;3.07;;;14.10;99.90;;;;;;5052193;28;20505;-68
2022/10/03 12:22:04;;;;;;;3.30;3.00;;;14.30;99.90;;;;;;5049939;28;20459;-68
2022/10/03 12:24:39;;;;;;;3.50;3.20;;;14.70;99.90;;;;;;5052261;28;20480;-69
2022/10/03 12:27:17;;;;;;;4.77;2.90;;;15.20;99.90;;;;;;5051845;28;20459;-68
2022/10/03 12:29:53;;;;;;;4.53;3.60;;;15.60;99.90;;;;;;5051293;28;20459;-68
2022/10/03 12:32:29;;;;;;;2.67;2.47;;;16.10;99.90;;;;;;5051197;28;20463;-68
2022/10/03 12:35:12;;;;;;;2.73;2.43;;;16.50;99.90;;;;;;5051661;28;20995;-69
2022/10/03 12:37:49;;;;;;;4.03;2.47;;;16.80;99.90;;;;;;5051810;28;20581;-68
2022/10/03 12:40:23;;;;;;;2.70;2.50;;;16.70;99.90;;;;;;5048812;28;20550;-69
2022/10/03 12:43:04;;;;;;;3.87;2.33;;;16.60;99.90;;;;;;5050384;28;20463;-68
2022/10/03 12:45:36;;;;;;;4.73;3.30;;;16.60;99.90;;;;;;5051860;28;20465;-68
2022/10/03 12:48:41;;;;;;;2.97;2.47;;;16.80;99.90;;;;;;5051041;28;20459;-68
2022/10/03 12:51:20;;;;;;;6.60;2.90;;;17.00;99.90;;;;;;5051495;28;20551;-68
2022/10/03 12:53:57;;;;;;;2.77;2.43;;;17.30;99.90;;;;;;5068292;28;20490;-68
2022/10/03 12:56:36;;;;;;;4.20;2.50;;;17.40;99.90;;;;;;5071635;28;20455;-68
2022/10/03 12:59:13;;;;;;;3.20;2.60;;;17.80;99.90;;;;;;5071148;28;20450;-68
2022/10/03 13:02:18;;;;;;;3.50;2.87;;;18.00;99.90;;;;;;5070423;28;20459;-68
2022/10/03 13:05:03;;;;;;;4.57;2.80;;;18.10;99.90;;;;;;5069634;28;20490;-68
2022/10/03 13:07:38;;;;;;;4.93;2.87;;;18.00;99.90;;;;;;5070942;28;20554;-68
2022/10/03 13:10:17;;;;;;;4.27;2.80;;;17.90;99.90;;;;;;5070549;28;20825;-68
2022/10/03 13:12:51;;;;;;;3.77;2.30;;;17.50;99.90;;;;;;5070288;28;20461;-68
2022/10/03 13:15:44;;;;;;;4.43;2.60;;;17.10;99.90;;;;;;5071252;28;20965;-68
2022/10/03 13:18:39;;;;;;;3.37;3.07;;;16.70;99.90;;;;;;5069928;28;20487;-68
2022/10/03 13:21:09;;;;;;;2.93;2.47;;;16.30;99.90;;;;;;5070200;28;20848;-68
2022/10/03 13:23:46;;;;;;;4.87;2.80;;;16.00;99.90;;;;;;5068786;28;20485;-68
2022/10/03 13:26:18;;;;;;;3.00;2.70;;;15.80;99.90;;;;;;5070760;28;20467;-69
2022/10/03 13:29:01;;;;;;;2.63;2.43;;;15.50;99.90;;;;;;5065774;28;20491;-68
2022/10/03 13:31:32;;;;;;;3.93;2.57;;;15.50;99.90;;;;;;5069265;28;20459;-68
2022/10/03 13:34:03;;;;;;;3.40;2.90;;;15.30;99.90;;;;;;5067355;28;20986;-68
2022/10/03 13:36:34;;;;;;;3.17;2.97;;;15.30;99.90;;;;;;5069931;28;20943;-68
2022/10/03 13:39:12;;;;;;;3.10;2.50;;;15.30;99.90;;;;;;5069969;28;20463;-67
2022/10/03 13:42:04;;;;;;;4.77;2.83;;;15.20;99.90;;;;;;5069209;28;20457;-67
2022/10/03 13:44:37;;;;;;;3.50;2.47;;;15.10;99.90;;;;;;5069827;28;20483;-69
2022/10/03 13:47:26;;;;;;;3.70;2.70;;;15.00;99.90;;;;;;5068570;28;20537;-68
2022/10/03 13:49:55;;;;;;;3.60;2.37;;;15.00;99.90;;;;;;5065849;28;20460;-68
2022/10/03 13:52:33;;;;;;;3.20;2.40;;;14.80;99.90;;;;;;5069370;28;20561;-67
2022/10/03 13:55:25;;;;;;;2.77;2.50;;;14.70;99.90;;;;;;5069232;28;20859;-68
2022/10/03 13:58:21;;;;;;;4.03;2.70;;;14.70;99.90;;;;;;5069122;28;20494;-68
2022/10/03 14:01:15;;;;;;;4.43;2.77;;;14.60;99.90;;;;;;5068939;28;20463;-68
2022/10/03 14:03:54;;;;;;;4.27;2.80;;;14.60;99.90;;;;;;5069259;28;20580;-68
2022/10/03 14:06:27;;;;;;;5.23;2.63;;;14.50;99.90;;;;;;5069693;28;20458;-68
2022/10/03 14:09:12;;;;;;;5.07;2.73;;;14.50;99.90;;;;;;5068311;28;20466;-68
2022/10/03 14:11:45;;;;;;;5.13;2.67;;;14.50;99.90;;;;;;5069093;28;20855;-68
2022/10/03 14:14:38;;;;;;;4.10;2.50;;;14.50;99.90;;;;;;5069712;28;20478;-68
2022/10/03 14:17:11;;;;;;;3.63;3.00;;;14.60;99.90;;;;;;5052373;28;21014;-68
2022/10/03 14:19:50;;;;;;;4.60;2.27;;;14.70;99.90;;;;;;5069402;28;20486;-68
2022/10/03 14:22:37;;;;;;;4.70;2.53;;;14.60;99.90;;;;;;5068547;28;20462;-68
2022/10/03 14:25:19;;;;;;;2.80;1.90;;;14.60;99.90;;;;;;5069268;28;20485;-68
2022/10/03 14:27:54;;;;;;;3.00;2.43;;;14.50;99.90;;;;;;5069290;28;20450;-67
2022/10/03 14:30:23;;;;;;;2.90;2.43;;;14.50;99.90;;;;;;5069245;28;20491;-68
2022/10/03 14:33:00;;;;;;;4.63;2.27;;;14.60;99.90;;;;;;5068327;28;20459;-68
2022/10/03 14:35:37;;;;;;;3.27;2.17;;;14.60;99.90;;;;;;5072584;28;20887;-68
2022/10/03 14:38:15;;;;;;;2.80;2.30;;;14.60;99.90;;;;;;5072998;28;20479;-67
2022/10/03 14:40:48;;;;;;;2.93;2.43;;;14.70;99.90;;;;;;5073431;28;20533;-68
2022/10/03 14:43:28;;;;;;;2.87;2.53;;;14.80;99.90;;;;;;5073197;28;20482;-68
2022/10/03 14:45:57;;;;;;;2.77;2.17;;;15.00;99.90;;;;;;5072462;28;20462;-68
2022/10/03 14:48:30;;;;;;;2.33;2.13;;;15.20;99.90;;;;;;5073706;28;20530;-68